createdAt,value
2022-08-31T00:01:55.768Z,99.90
2022-08-31T00:04:26.571Z,99.90
2022-08-31T00:06:55.078Z,99.90
2022-08-31T00:09:23.374Z,99.90
2022-08-31T00:11:51.641Z,99.90
2022-08-31T00:14:19.994Z,99.90
2022-08-31T00:16:49.633Z,99.90
2022-08-31T00:19:17.984Z,99.90
2022-08-31T00:21:46.393Z,99.90
2022-08-31T00:24:14.840Z,99.90
2022-08-31T00:26:44.141Z,99.90
2022-08-31T00:29:12.885Z,99.90
2022-08-31T00:31:41.773Z,99.90
2022-08-31T00:34:11.461Z,99.90
2022-08-31T00:36:40.332Z,99.90
2022-08-31T00:39:08.709Z,99.90
2022-08-31T00:41:39.228Z,99.90
2022-08-31T00:44:09.479Z,99.90
2022-08-31T00:46:41.287Z,99.90
2022-08-31T00:49:14.447Z,99.90
2022-08-31T00:51:45.180Z,99.90
2022-08-31T00:54:15.279Z,99.90
2022-08-31T00:56:44.856Z,99.90
2022-08-31T00:59:15.595Z,99.90
2022-08-31T01:01:43.854Z,99.90
2022-08-31T01:04:13.635Z,99.90
2022-08-31T01:06:42.456Z,99.90
2022-08-31T01:09:12.239Z,99.90
2022-08-31T01:11:42.413Z,99.90
2022-08-31T01:14:11.896Z,99.90
2022-08-31T01:16:44.270Z,99.90
2022-08-31T01:19:23.281Z,99.90
2022-08-31T01:22:00.671Z,99.90
2022-08-31T01:24:32.017Z,99.90
2022-08-31T01:27:04.681Z,99.90
2022-08-31T01:29:33.660Z,99.90
2022-08-31T01:32:02.537Z,99.90
2022-08-31T01:34:30.814Z,99.90
2022-08-31T01:36:59.397Z,99.90
2022-08-31T01:39:29.269Z,99.90
2022-08-31T01:41:57.931Z,99.90
2022-08-31T01:44:27.850Z,99.90
2022-08-31T01:46:57.114Z,99.90
2022-08-31T01:49:27.667Z,99.90
2022-08-31T01:51:56.722Z,99.90
2022-08-31T01:54:27.630Z,99.90
2022-08-31T01:56:58.660Z,99.90
2022-08-31T01:59:49.926Z,99.90
2022-08-31T02:02:37.234Z,99.90
2022-08-31T02:05:06.404Z,99.90
2022-08-31T02:07:34.928Z,99.90
2022-08-31T02:10:03.321Z,99.90
2022-08-31T02:12:33.069Z,99.90
2022-08-31T02:15:01.312Z,99.90
2022-08-31T02:17:29.605Z,99.90
2022-08-31T02:19:58.249Z,99.90
2022-08-31T02:22:26.529Z,99.90
2022-08-31T02:24:55.884Z,99.90
2022-08-31T02:27:27.028Z,99.90
2022-08-31T02:29:56.769Z,99.90
2022-08-31T02:32:25.164Z,99.90
2022-08-31T02:34:53.610Z,99.90
2022-08-31T02:37:21.838Z,99.90
2022-08-31T02:39:50.926Z,99.90
2022-08-31T02:42:21.393Z,99.90
2022-08-31T02:44:51.584Z,99.90
2022-08-31T02:47:21.386Z,99.90
2022-08-31T02:50:10.753Z,99.90
2022-08-31T02:52:39.061Z,99.90
2022-08-31T02:55:09.181Z,99.90
2022-08-31T02:57:37.544Z,99.90
2022-08-31T03:00:07.480Z,99.90
2022-08-31T03:02:37.080Z,99.90
2022-08-31T03:05:08.084Z,99.90
2022-08-31T03:07:39.052Z,99.90
2022-08-31T03:10:09.384Z,99.90
2022-08-31T03:12:38.163Z,99.90
2022-08-31T03:15:08.427Z,99.90
2022-08-31T03:17:41.670Z,99.90
2022-08-31T03:20:11.937Z,99.90
2022-08-31T03:22:41.282Z,99.90
2022-08-31T03:25:14.106Z,99.90
2022-08-31T03:27:42.625Z,99.90
2022-08-31T03:30:16.783Z,99.90
2022-08-31T03:32:53.999Z,99.90
2022-08-31T03:35:25.805Z,99.90
2022-08-31T03:37:54.229Z,99.90
2022-08-31T03:40:22.507Z,99.90
2022-08-31T03:42:52.209Z,99.90
2022-08-31T03:45:20.574Z,99.90
2022-08-31T03:47:49.107Z,99.90
2022-08-31T03:50:19.481Z,99.90
2022-08-31T03:53:05.892Z,99.90
2022-08-31T03:55:35.744Z,99.90
2022-08-31T03:58:06.289Z,99.90
2022-08-31T04:00:35.757Z,99.90
2022-08-31T04:03:09.099Z,99.90
2022-08-31T04:06:01.787Z,99.90
2022-08-31T04:08:50.275Z,99.90
2022-08-31T04:11:56.642Z,99.90
2022-08-31T04:14:47.855Z,99.90
2022-08-31T04:17:34.737Z,99.90
2022-08-31T04:20:24.462Z,99.90
2022-08-31T04:22:59.125Z,99.90
2022-08-31T04:25:38.054Z,99.90
2022-08-31T04:28:09.160Z,99.90
2022-08-31T04:30:40.434Z,99.90
2022-08-31T04:33:09.105Z,99.90
2022-08-31T04:35:39.883Z,99.90
2022-08-31T04:38:10.325Z,99.90
2022-08-31T04:40:42.474Z,99.90
2022-08-31T04:43:11.373Z,99.90
2022-08-31T04:45:45.964Z,99.90
2022-08-31T04:48:14.819Z,99.90
2022-08-31T04:50:44.053Z,99.90
2022-08-31T04:53:13.635Z,99.90
2022-08-31T04:55:43.068Z,99.90
2022-08-31T04:58:14.015Z,99.90
2022-08-31T05:00:44.093Z,99.90
2022-08-31T05:03:32.669Z,99.90
2022-08-31T05:06:01.096Z,99.90
2022-08-31T05:08:30.783Z,99.90
2022-08-31T05:11:00.706Z,99.90
2022-08-31T05:13:29.061Z,99.90
2022-08-31T05:15:58.076Z,99.90
2022-08-31T05:18:26.776Z,99.90
2022-08-31T05:20:58.543Z,99.90
2022-08-31T05:23:27.744Z,99.90
2022-08-31T05:25:58.081Z,99.90
2022-08-31T05:28:26.901Z,99.90
2022-08-31T05:30:56.187Z,99.90
2022-08-31T05:33:33.920Z,99.90
2022-08-31T05:36:03.605Z,99.90
2022-08-31T05:38:32.572Z,99.90
2022-08-31T05:41:03.717Z,99.90
2022-08-31T05:43:31.948Z,99.90
2022-08-31T05:46:00.692Z,99.90
2022-08-31T05:48:33.495Z,99.90
2022-08-31T05:51:04.271Z,99.90
2022-08-31T05:53:33.208Z,99.90
2022-08-31T05:56:06.759Z,99.90
2022-08-31T05:58:35.464Z,99.90
2022-08-31T06:01:04.930Z,99.90
2022-08-31T06:03:54.209Z,99.90
2022-08-31T06:06:22.742Z,99.90
2022-08-31T06:08:51.826Z,99.90
2022-08-31T06:11:24.157Z,99.90
2022-08-31T06:13:56.523Z,99.90
2022-08-31T06:16:26.376Z,99.90
2022-08-31T06:18:56.309Z,99.90
2022-08-31T06:21:27.605Z,99.90
2022-08-31T06:23:58.172Z,99.90
2022-08-31T06:26:29.622Z,99.90
2022-08-31T06:29:00.550Z,99.90
2022-08-31T06:31:32.926Z,99.90
2022-08-31T06:34:02.700Z,99.90
2022-08-31T06:36:53.986Z,99.90
2022-08-31T06:39:41.106Z,99.90
2022-08-31T06:42:33.027Z,99.90
2022-08-31T06:45:04.606Z,99.90
2022-08-31T06:48:05.379Z,99.90
2022-08-31T06:50:33.723Z,99.90
2022-08-31T06:53:02.131Z,99.90
2022-08-31T06:55:50.411Z,99.90
2022-08-31T06:59:00.622Z,99.90
2022-08-31T07:01:49.175Z,99.90
2022-08-31T07:04:25.073Z,99.90
2022-08-31T07:06:53.592Z,99.90
2022-08-31T07:09:22.787Z,99.90
2022-08-31T07:11:53.574Z,99.90
2022-08-31T07:14:25.238Z,99.90
2022-08-31T07:16:57.968Z,99.90
2022-08-31T07:19:27.328Z,99.90
2022-08-31T07:21:58.768Z,99.90
2022-08-31T07:24:30.246Z,99.90
2022-08-31T07:27:00.226Z,99.90
2022-08-31T07:29:40.349Z,99.90
2022-08-31T07:32:13.506Z,99.90
2022-08-31T07:34:44.074Z,99.90
2022-08-31T07:37:55.651Z,99.90
2022-08-31T07:40:44.990Z,99.90
2022-08-31T07:43:16.397Z,99.90
2022-08-31T07:45:47.914Z,99.90
2022-08-31T07:48:21.777Z,99.90
2022-08-31T07:51:23.555Z,99.90
2022-08-31T07:54:10.922Z,99.90
2022-08-31T07:56:46.609Z,99.90
2022-08-31T07:59:17.057Z,99.90
2022-08-31T08:01:48.861Z,99.90
2022-08-31T08:04:25.291Z,99.90
2022-08-31T08:07:16.639Z,99.90
2022-08-31T08:10:14.906Z,99.90
2022-08-31T08:13:13.223Z,99.90
2022-08-31T08:15:51.998Z,99.90
2022-08-31T08:18:50.974Z,99.90
2022-08-31T08:21:23.183Z,99.90
2022-08-31T08:23:52.399Z,99.90
2022-08-31T08:26:45.191Z,99.90
2022-08-31T08:29:33.825Z,99.90
2022-08-31T08:32:04.409Z,99.90
2022-08-31T08:34:34.874Z,99.90
2022-08-31T08:37:07.610Z,99.90
2022-08-31T08:39:35.958Z,99.90
2022-08-31T08:42:19.269Z,99.90
2022-08-31T08:44:47.685Z,99.90
2022-08-31T08:47:20.842Z,99.90
2022-08-31T08:50:04.058Z,99.90
2022-08-31T08:52:41.399Z,99.90
2022-08-31T08:55:12.754Z,99.90
2022-08-31T08:57:43.687Z,99.90
2022-08-31T09:00:15.856Z,99.90
2022-08-31T09:02:55.887Z,99.90
2022-08-31T09:05:50.194Z,99.90
2022-08-31T09:08:46.551Z,99.90
2022-08-31T09:11:19.593Z,99.90
2022-08-31T09:14:00.105Z,99.90
2022-08-31T09:16:40.943Z,99.90
2022-08-31T09:19:13.815Z,99.90
2022-08-31T09:21:48.216Z,99.90
2022-08-31T09:24:20.841Z,99.90
2022-08-31T09:27:17.316Z,99.90
2022-08-31T09:29:47.919Z,99.90
2022-08-31T09:32:23.251Z,99.90
2022-08-31T09:34:59.022Z,99.90
2022-08-31T09:37:33.596Z,99.90
2022-08-31T09:40:23.693Z,99.90
2022-08-31T09:43:05.170Z,99.90
2022-08-31T09:45:41.211Z,99.90
2022-08-31T09:48:10.894Z,99.90
2022-08-31T09:50:45.067Z,99.90
2022-08-31T09:53:37.174Z,99.90
2022-08-31T09:56:17.616Z,99.90
2022-08-31T09:58:49.140Z,99.90
2022-08-31T10:01:22.463Z,99.90
2022-08-31T10:03:50.890Z,99.90
2022-08-31T10:06:44.543Z,99.90
2022-08-31T10:09:26.095Z,99.90
2022-08-31T10:11:57.654Z,99.90
2022-08-31T10:14:31.907Z,99.90
2022-08-31T10:17:05.861Z,99.90
2022-08-31T10:19:51.727Z,99.90
2022-08-31T10:22:28.322Z,99.90
2022-08-31T10:25:17.196Z,99.90
2022-08-31T10:27:48.937Z,99.90
2022-08-31T10:30:29.778Z,99.90
2022-08-31T10:33:06.088Z,99.90
2022-08-31T10:35:44.826Z,99.90
2022-08-31T10:38:26.185Z,99.90
2022-08-31T10:41:07.821Z,99.90
2022-08-31T10:43:44.710Z,99.90
2022-08-31T10:46:13.430Z,99.90
2022-08-31T10:48:44.182Z,99.90
2022-08-31T10:51:22.376Z,99.90
2022-08-31T10:54:06.774Z,99.90
2022-08-31T10:56:44.994Z,99.90
2022-08-31T10:59:20.497Z,99.90
2022-08-31T11:01:58.182Z,99.90
2022-08-31T11:04:51.760Z,99.90
2022-08-31T11:07:40.588Z,99.90
2022-08-31T11:10:22.194Z,99.90
2022-08-31T11:12:57.526Z,99.90
2022-08-31T11:16:02.473Z,99.90
2022-08-31T11:18:56.446Z,99.90
2022-08-31T11:21:52.198Z,99.90
2022-08-31T11:24:56.085Z,99.90
2022-08-31T11:27:26.830Z,99.90
2022-08-31T11:30:01.563Z,99.90
2022-08-31T11:32:34.576Z,99.90
2022-08-31T11:35:08.420Z,99.90
2022-08-31T11:37:57.828Z,99.90
2022-08-31T11:41:00.736Z,99.90
2022-08-31T11:43:51.985Z,99.90
2022-08-31T11:47:09.112Z,99.90
2022-08-31T11:49:51.039Z,99.90
2022-08-31T11:52:41.081Z,99.90
2022-08-31T11:55:23.901Z,99.90
2022-08-31T11:58:33.833Z,99.90
2022-08-31T12:01:25.369Z,99.90
2022-08-31T12:03:56.662Z,99.90
2022-08-31T12:07:04.577Z,99.90
2022-08-31T12:10:11.375Z,99.90
2022-08-31T12:13:19.830Z,99.90
2022-08-31T12:16:05.201Z,99.90
2022-08-31T12:18:47.530Z,99.90
2022-08-31T12:21:39.805Z,99.90
2022-08-31T12:24:22.515Z,99.90
2022-08-31T12:27:07.756Z,99.90
2022-08-31T12:29:41.476Z,99.90
2022-08-31T12:32:26.893Z,99.90
2022-08-31T12:35:13.044Z,99.90
2022-08-31T12:37:41.851Z,99.90
2022-08-31T12:40:21.383Z,99.90
2022-08-31T12:42:57.768Z,99.90
2022-08-31T12:45:50.654Z,99.90
2022-08-31T12:48:31.662Z,99.90
2022-08-31T12:51:07.745Z,99.90
2022-08-31T12:54:00.148Z,99.90
2022-08-31T12:56:35.148Z,99.90
2022-08-31T12:59:16.017Z,99.90
2022-08-31T13:01:49.417Z,99.90
2022-08-31T13:04:20.160Z,99.90
2022-08-31T13:06:49.201Z,99.90
2022-08-31T13:09:28.896Z,99.90
2022-08-31T13:11:59.638Z,99.90
2022-08-31T13:14:30.441Z,99.90
2022-08-31T13:17:06.235Z,99.90
2022-08-31T13:19:36.104Z,99.90
2022-08-31T13:22:06.913Z,99.90
2022-08-31T13:24:41.045Z,99.90
2022-08-31T13:27:13.283Z,99.90
2022-08-31T13:29:45.432Z,99.90
2022-08-31T13:32:31.679Z,99.90
2022-08-31T13:35:02.870Z,99.90
2022-08-31T13:37:35.154Z,99.90
2022-08-31T13:40:09.696Z,99.90
2022-08-31T13:42:41.359Z,99.90
2022-08-31T13:45:26.287Z,99.90
2022-08-31T13:47:58.393Z,99.90
2022-08-31T13:50:32.876Z,99.90
2022-08-31T13:53:25.920Z,99.90
2022-08-31T13:55:52.200Z,99.90
2022-08-31T13:58:28.901Z,99.90
2022-08-31T14:01:23.043Z,99.90
2022-08-31T14:03:57.370Z,99.60
2022-08-31T14:06:27.843Z,99.90
2022-08-31T14:09:03.181Z,99.70
2022-08-31T14:11:33.954Z,99.70
2022-08-31T14:14:06.115Z,99.90
2022-08-31T14:16:38.231Z,99.90
2022-08-31T14:19:10.740Z,99.90
2022-08-31T14:21:42.018Z,99.90
2022-08-31T14:24:12.214Z,99.90
2022-08-31T14:26:44.393Z,99.90
2022-08-31T14:29:14.847Z,99.80
2022-08-31T14:31:48.357Z,99.10
2022-08-31T14:34:27.258Z,99.30
2022-08-31T14:37:02.231Z,98.30
2022-08-31T14:39:31.934Z,98.90
2022-08-31T14:42:03.225Z,98.90
2022-08-31T14:44:36.896Z,98.20
2022-08-31T14:47:05.344Z,98.10
2022-08-31T14:49:36.526Z,98.80
2022-08-31T14:52:06.342Z,97.10
2022-08-31T14:54:36.947Z,97.90
2022-08-31T14:57:09.616Z,97.30
2022-08-31T14:59:39.715Z,97.90
2022-08-31T15:02:10.091Z,97.90
2022-08-31T15:04:45.461Z,98.10
2022-08-31T15:07:15.240Z,98.30
2022-08-31T15:09:44.674Z,97.50
2022-08-31T15:12:14.751Z,97.80
2022-08-31T15:14:45.028Z,98.10
2022-08-31T15:17:19.582Z,98.20
2022-08-31T15:19:53.601Z,98.40
2022-08-31T15:22:22.266Z,98.50
2022-08-31T15:24:50.445Z,98.80
2022-08-31T15:27:19.857Z,98.40
2022-08-31T15:29:49.801Z,98.00
2022-08-31T15:32:19.043Z,98.10
2022-08-31T15:34:53.590Z,98.10
2022-08-31T15:37:22.579Z,97.80
2022-08-31T15:39:51.380Z,98.20
2022-08-31T15:42:21.387Z,97.90
2022-08-31T15:44:56.048Z,97.80
2022-08-31T15:47:42.416Z,97.40
2022-08-31T15:50:12.350Z,97.80
2022-08-31T15:52:49.714Z,97.40
2022-08-31T15:55:25.567Z,99.10
2022-08-31T15:57:54.846Z,98.50
2022-08-31T16:00:24.239Z,98.30
2022-08-31T16:02:54.768Z,98.10
2022-08-31T16:05:30.508Z,98.30
2022-08-31T16:07:58.829Z,98.40
2022-08-31T16:10:28.126Z,98.30
2022-08-31T16:12:56.431Z,98.00
2022-08-31T16:15:25.394Z,98.00
2022-08-31T16:17:57.857Z,97.80
2022-08-31T16:20:29.334Z,97.90
2022-08-31T16:22:59.221Z,97.70
2022-08-31T16:25:41.834Z,97.70
2022-08-31T16:28:16.489Z,97.90
2022-08-31T16:30:45.214Z,97.70
2022-08-31T16:33:13.595Z,97.80
2022-08-31T16:35:44.575Z,98.30
2022-08-31T16:38:13.442Z,98.30
2022-08-31T16:40:43.549Z,98.30
2022-08-31T16:43:12.193Z,97.80
2022-08-31T16:45:41.163Z,98.10
2022-08-31T16:48:29.540Z,98.30
2022-08-31T16:51:02.046Z,97.90
2022-08-31T16:53:30.981Z,98.10
2022-08-31T16:56:00.026Z,98.10
2022-08-31T16:58:50.465Z,97.90
2022-08-31T17:01:20.823Z,97.60
2022-08-31T17:03:51.085Z,98.20
2022-08-31T17:06:20.951Z,98.10
2022-08-31T17:08:49.246Z,97.90
2022-08-31T17:11:23.616Z,97.70
2022-08-31T17:13:58.040Z,97.60
2022-08-31T17:16:28.587Z,98.00
2022-08-31T17:18:59.074Z,98.00
2022-08-31T17:21:31.569Z,97.90
2022-08-31T17:24:02.365Z,97.90
2022-08-31T17:26:35.010Z,97.90
2022-08-31T17:29:06.320Z,97.90
2022-08-31T17:31:37.821Z,97.70
2022-08-31T17:34:06.196Z,97.90
2022-08-31T17:36:37.745Z,97.70
2022-08-31T17:39:07.245Z,97.60
2022-08-31T17:41:37.649Z,97.90
2022-08-31T17:44:07.839Z,98.00
2022-08-31T17:46:37.177Z,98.00
2022-08-31T17:49:06.406Z,97.90
2022-08-31T17:51:36.482Z,97.90
2022-08-31T17:54:07.617Z,98.00
2022-08-31T17:56:47.427Z,97.80
2022-08-31T17:59:18.556Z,98.10
2022-08-31T18:01:49.166Z,98.10
2022-08-31T18:04:18.905Z,97.90
2022-08-31T18:06:51.653Z,97.90
2022-08-31T18:09:21.742Z,98.00
2022-08-31T18:11:50.165Z,97.70
2022-08-31T18:14:20.767Z,97.90
2022-08-31T18:16:50.540Z,97.90
2022-08-31T18:19:27.799Z,98.30
2022-08-31T18:21:58.149Z,97.90
2022-08-31T18:24:26.942Z,97.90
2022-08-31T18:26:56.750Z,97.30
2022-08-31T18:29:26.752Z,97.30
2022-08-31T18:31:57.089Z,97.40
2022-08-31T18:34:26.657Z,97.70
2022-08-31T18:36:58.588Z,97.60
2022-08-31T18:39:50.517Z,97.40
2022-08-31T18:42:35.219Z,97.50
2022-08-31T18:45:19.423Z,97.40
2022-08-31T18:48:13.598Z,97.60
2022-08-31T18:50:39.153Z,97.80
2022-08-31T18:53:11.171Z,97.50
2022-08-31T18:55:43.740Z,97.20
2022-08-31T18:58:12.553Z,97.40
2022-08-31T19:00:41.470Z,97.10
2022-08-31T19:03:10.045Z,97.00
2022-08-31T19:05:41.654Z,97.20
2022-08-31T19:08:11.281Z,96.90
2022-08-31T19:10:42.183Z,97.00
2022-08-31T19:13:10.654Z,97.00
2022-08-31T19:15:40.357Z,96.80
2022-08-31T19:18:09.650Z,96.70
2022-08-31T19:20:38.451Z,96.70
2022-08-31T19:23:07.224Z,96.60
2022-08-31T19:25:43.612Z,96.50
2022-08-31T19:28:12.177Z,96.60
2022-08-31T19:30:40.835Z,96.60
2022-08-31T19:33:12.268Z,96.70
2022-08-31T19:35:41.545Z,96.60
2022-08-31T19:38:09.918Z,96.70
2022-08-31T19:40:39.955Z,96.50
2022-08-31T19:46:09.608Z,96.50
2022-08-31T19:48:46.003Z,97.10
2022-08-31T19:51:15.722Z,96.40
2022-08-31T19:53:45.177Z,96.70
2022-08-31T19:56:17.607Z,96.40
2022-08-31T19:58:48.708Z,96.20
2022-08-31T20:01:18.211Z,96.10
2022-08-31T20:03:48.166Z,96.20
2022-08-31T20:06:19.226Z,96.20
2022-08-31T20:08:48.991Z,96.00
2022-08-31T20:11:22.146Z,96.10
2022-08-31T20:13:52.561Z,96.00
2022-08-31T20:16:22.122Z,96.20
2022-08-31T20:18:57.772Z,96.30
2022-08-31T20:21:31.071Z,96.30
2022-08-31T20:24:02.872Z,96.30
2022-08-31T20:26:37.364Z,96.30
2022-08-31T20:29:10.402Z,96.50
2022-08-31T20:31:40.353Z,96.50
2022-08-31T20:34:09.342Z,96.60
2022-08-31T20:36:38.917Z,96.60
2022-08-31T20:39:09.755Z,96.70
2022-08-31T20:41:41.317Z,96.70
2022-08-31T20:44:13.136Z,96.80
2022-08-31T20:47:00.516Z,97.10
2022-08-31T20:49:30.982Z,96.90
2022-08-31T20:52:01.842Z,97.00
2022-08-31T20:54:32.685Z,96.70
2022-08-31T20:57:02.535Z,96.80
2022-08-31T20:59:33.650Z,96.90
2022-08-31T21:02:05.470Z,96.90
2022-08-31T21:04:37.483Z,96.90
2022-08-31T21:07:13.030Z,96.90
2022-08-31T21:09:42.576Z,97.10
2022-08-31T21:12:14.257Z,97.10
2022-08-31T21:14:48.189Z,97.10
2022-08-31T21:17:16.858Z,97.20
2022-08-31T21:19:46.038Z,97.30
2022-08-31T21:22:17.542Z,97.10
2022-08-31T21:24:46.516Z,97.10
2022-08-31T21:27:17.246Z,97.20
2022-08-31T21:29:47.169Z,97.20
2022-08-31T21:32:16.261Z,97.20
2022-08-31T21:34:44.525Z,97.40
2022-08-31T21:37:13.325Z,97.50
2022-08-31T21:39:42.213Z,97.40
2022-08-31T21:42:10.407Z,97.50
2022-08-31T21:44:39.479Z,97.70
2022-08-31T21:47:14.901Z,97.60
2022-08-31T21:49:43.820Z,97.80
2022-08-31T21:52:12.966Z,98.00
2022-08-31T21:54:44.580Z,98.00
2022-08-31T21:57:14.164Z,98.00
2022-08-31T21:59:42.372Z,98.10
2022-08-31T22:02:13.931Z,98.40
2022-08-31T22:04:44.214Z,98.30
2022-08-31T22:07:14.352Z,98.20
2022-08-31T22:09:43.276Z,98.30
2022-08-31T22:12:15.066Z,98.20
2022-08-31T22:14:44.730Z,98.30
2022-08-31T22:17:14.764Z,98.40
2022-08-31T22:19:43.006Z,98.30
2022-08-31T22:22:13.269Z,98.30
2022-08-31T22:24:42.649Z,98.30
2022-08-31T22:27:12.817Z,98.50
2022-08-31T22:29:41.583Z,98.60
2022-08-31T22:32:12.154Z,98.60
2022-08-31T22:34:43.611Z,98.60
2022-08-31T22:37:14.120Z,98.60
2022-08-31T22:39:43.522Z,98.60
2022-08-31T22:42:12.093Z,98.80
2022-08-31T22:44:41.024Z,99.00
2022-08-31T22:47:09.471Z,99.00
2022-08-31T22:49:37.751Z,99.10
2022-08-31T22:52:07.436Z,99.20
2022-08-31T22:54:36.491Z,99.20
2022-08-31T22:57:05.079Z,99.50
2022-08-31T22:59:33.235Z,99.30
2022-08-31T23:02:03.818Z,99.50
2022-08-31T23:04:35.063Z,99.50
2022-08-31T23:07:04.630Z,99.60
2022-08-31T23:09:34.441Z,99.30
2022-08-31T23:12:05.238Z,99.50
2022-08-31T23:14:33.604Z,99.50
2022-08-31T23:17:03.913Z,99.60
2022-08-31T23:19:36.699Z,99.70
2022-08-31T23:22:09.207Z,99.70
2022-08-31T23:24:44.714Z,99.60
2022-08-31T23:27:14.154Z,99.50
2022-08-31T23:29:45.918Z,99.60
2022-08-31T23:32:18.023Z,99.90
2022-08-31T23:34:49.713Z,99.90
2022-08-31T23:37:18.500Z,99.90
2022-08-31T23:39:48.060Z,99.90
2022-08-31T23:42:18.269Z,99.90
2022-08-31T23:44:47.759Z,99.90
2022-08-31T23:47:17.987Z,99.90
2022-08-31T23:49:47.080Z,99.90
2022-08-31T23:52:18.533Z,99.90
2022-08-31T23:54:49.536Z,99.90
2022-08-31T23:57:32.659Z,99.90
